sensor_id;sensor_type;location;lat;lon;timestamp;temperature;humidity
831;DHT22;397;50.564;7.272;2022-07-01T00:00:47;16.70;99.90
831;DHT22;397;50.564;7.272;2022-07-01T00:03:14;16.50;99.90
831;DHT22;397;50.564;7.272;2022-07-01T00:05:42;16.70;99.90
831;DHT22;397;50.564;7.272;2022-07-01T00:08:09;16.40;99.90
831;DHT22;397;50.564;7.272;2022-07-01T00:10:37;16.70;99.90
831;DHT22;397;50.564;7.272;2022-07-01T00:13:04;16.50;99.90
831;DHT22;397;50.564;7.272;2022-07-01T00:15:33;16.60;99.90
831;DHT22;397;50.564;7.272;2022-07-01T00:18:02;16.40;99.90
831;DHT22;397;50.564;7.272;2022-07-01T00:20:29;16.50;99.90
831;DHT22;397;50.564;7.272;2022-07-01T00:22:57;16.40;99.90
831;DHT22;397;50.564;7.272;2022-07-01T00:25:24;16.60;99.90
831;DHT22;397;50.564;7.272;2022-07-01T00:27:52;16.50;99.90
831;DHT22;397;50.564;7.272;2022-07-01T00:30:19;16.50;99.90
831;DHT22;397;50.564;7.272;2022-07-01T00:32:47;16.70;99.90
831;DHT22;397;50.564;7.272;2022-07-01T00:35:15;16.70;99.90
831;DHT22;397;50.564;7.272;2022-07-01T00:37:42;16.70;99.90
831;DHT22;397;50.564;7.272;2022-07-01T00:40:10;16.50;99.90
831;DHT22;397;50.564;7.272;2022-07-01T00:42:39;16.60;99.90
831;DHT22;397;50.564;7.272;2022-07-01T00:45:09;16.30;99.90
831;DHT22;397;50.564;7.272;2022-07-01T00:47:38;16.50;99.90
831;DHT22;397;50.564;7.272;2022-07-01T00:50:11;16.40;99.90
831;DHT22;397;50.564;7.272;2022-07-01T00:52:41;16.30;99.90
831;DHT22;397;50.564;7.272;2022-07-01T00:55:11;16.30;99.90
831;DHT22;397;50.564;7.272;2022-07-01T00:57:41;16.50;99.90
831;DHT22;397;50.564;7.272;2022-07-01T01:00:11;16.60;99.90
831;DHT22;397;50.564;7.272;2022-07-01T01:02:39;16.70;99.90
831;DHT22;397;50.564;7.272;2022-07-01T01:05:08;16.70;99.90
831;DHT22;397;50.564;7.272;2022-07-01T01:07:36;16.70;99.90
831;DHT22;397;50.564;7.272;2022-07-01T01:10:04;16.70;99.90
831;DHT22;397;50.564;7.272;2022-07-01T01:12:32;16.40;99.90
831;DHT22;397;50.564;7.272;2022-07-01T01:15:00;16.40;99.90
831;DHT22;397;50.564;7.272;2022-07-01T01:17:28;16.40;99.90
831;DHT22;397;50.564;7.272;2022-07-01T01:19:56;16.50;99.90
831;DHT22;397;50.564;7.272;2022-07-01T01:22:23;16.50;99.90
831;DHT22;397;50.564;7.272;2022-07-01T01:24:51;16.50;99.90
831;DHT22;397;50.564;7.272;2022-07-01T01:27:18;16.30;99.90
831;DHT22;397;50.564;7.272;2022-07-01T01:29:46;16.30;99.90
831;DHT22;397;50.564;7.272;2022-07-01T01:32:13;16.40;99.90
831;DHT22;397;50.564;7.272;2022-07-01T01:34:41;16.60;99.90
831;DHT22;397;50.564;7.272;2022-07-01T01:37:09;16.50;99.90
831;DHT22;397;50.564;7.272;2022-07-01T01:39:36;16.40;99.90
831;DHT22;397;50.564;7.272;2022-07-01T01:42:05;16.30;99.90
831;DHT22;397;50.564;7.272;2022-07-01T01:44:33;16.30;99.90
831;DHT22;397;50.564;7.272;2022-07-01T01:47:00;16.30;99.90
831;DHT22;397;50.564;7.272;2022-07-01T01:49:28;16.10;99.90
831;DHT22;397;50.564;7.272;2022-07-01T01:51:57;16.10;99.90
831;DHT22;397;50.564;7.272;2022-07-01T01:54:27;16.10;99.90
831;DHT22;397;50.564;7.272;2022-07-01T01:56:55;16.20;99.90
831;DHT22;397;50.564;7.272;2022-07-01T01:59:22;15.90;99.90
831;DHT22;397;50.564;7.272;2022-07-01T02:01:50;15.90;99.90
831;DHT22;397;50.564;7.272;2022-07-01T02:04:17;15.90;99.90
831;DHT22;397;50.564;7.272;2022-07-01T02:06:45;15.70;99.90
831;DHT22;397;50.564;7.272;2022-07-01T02:09:13;15.50;99.90
831;DHT22;397;50.564;7.272;2022-07-01T02:11:40;15.40;99.90
831;DHT22;397;50.564;7.272;2022-07-01T02:14:08;15.40;99.90
831;DHT22;397;50.564;7.272;2022-07-01T02:16:35;15.60;99.90
831;DHT22;397;50.564;7.272;2022-07-01T02:19:03;15.70;99.90
831;DHT22;397;50.564;7.272;2022-07-01T02:21:31;15.90;99.90
831;DHT22;397;50.564;7.272;2022-07-01T02:23:58;16.10;99.90
831;DHT22;397;50.564;7.272;2022-07-01T02:26:26;16.10;99.90
831;DHT22;397;50.564;7.272;2022-07-01T02:28:53;16.10;99.90
831;DHT22;397;50.564;7.272;2022-07-01T02:31:20;16.20;99.90
831;DHT22;397;50.564;7.272;2022-07-01T02:33:48;16.30;99.90
831;DHT22;397;50.564;7.272;2022-07-01T02:36:16;16.30;99.90
831;DHT22;397;50.564;7.272;2022-07-01T02:38:43;16.30;99.90
831;DHT22;397;50.564;7.272;2022-07-01T02:41:11;16.10;99.90
831;DHT22;397;50.564;7.272;2022-07-01T02:43:38;16.10;99.90
831;DHT22;397;50.564;7.272;2022-07-01T02:46:06;16.20;99.90
831;DHT22;397;50.564;7.272;2022-07-01T02:48:33;16.20;99.90
831;DHT22;397;50.564;7.272;2022-07-01T02:51:01;16.30;99.90
831;DHT22;397;50.564;7.272;2022-07-01T02:53:28;16.30;99.90
831;DHT22;397;50.564;7.272;2022-07-01T02:55:56;16.40;99.90
831;DHT22;397;50.564;7.272;2022-07-01T02:58:25;16.20;99.90
831;DHT22;397;50.564;7.272;2022-07-01T03:00:52;16.00;99.90
831;DHT22;397;50.564;7.272;2022-07-01T03:03:20;16.10;99.90
831;DHT22;397;50.564;7.272;2022-07-01T03:05:47;15.90;99.90
831;DHT22;397;50.564;7.272;2022-07-01T03:08:15;16.10;99.90
831;DHT22;397;50.564;7.272;2022-07-01T03:10:43;16.00;99.90
831;DHT22;397;50.564;7.272;2022-07-01T03:13:10;16.10;99.90
831;DHT22;397;50.564;7.272;2022-07-01T03:15:38;16.10;99.90
831;DHT22;397;50.564;7.272;2022-07-01T03:18:05;16.20;99.90
831;DHT22;397;50.564;7.272;2022-07-01T03:20:33;16.20;99.90
831;DHT22;397;50.564;7.272;2022-07-01T03:23:00;16.00;99.90
831;DHT22;397;50.564;7.272;2022-07-01T03:25:28;15.90;99.90
831;DHT22;397;50.564;7.272;2022-07-01T03:27:55;15.80;99.90
831;DHT22;397;50.564;7.272;2022-07-01T03:30:23;15.90;99.90
831;DHT22;397;50.564;7.272;2022-07-01T03:32:51;16.00;99.90
831;DHT22;397;50.564;7.272;2022-07-01T03:35:18;16.10;99.90
831;DHT22;397;50.564;7.272;2022-07-01T03:37:49;16.20;99.90
831;DHT22;397;50.564;7.272;2022-07-01T03:40:16;16.30;99.90
831;DHT22;397;50.564;7.272;2022-07-01T03:42:44;16.40;99.90
831;DHT22;397;50.564;7.272;2022-07-01T03:45:11;16.30;99.90
831;DHT22;397;50.564;7.272;2022-07-01T03:47:51;16.30;99.90
831;DHT22;397;50.564;7.272;2022-07-01T03:50:20;16.10;99.90
831;DHT22;397;50.564;7.272;2022-07-01T03:52:45;16.10;99.90
831;DHT22;397;50.564;7.272;2022-07-01T03:55:13;16.10;99.90
831;DHT22;397;50.564;7.272;2022-07-01T03:57:41;16.10;99.90
831;DHT22;397;50.564;7.272;2022-07-01T04:00:09;16.00;99.90
831;DHT22;397;50.564;7.272;2022-07-01T04:02:36;16.10;99.90
831;DHT22;397;50.564;7.272;2022-07-01T04:05:04;16.20;99.90
831;DHT22;397;50.564;7.272;2022-07-01T04:07:32;16.30;99.90
831;DHT22;397;50.564;7.272;2022-07-01T04:09:59;16.40;99.90
831;DHT22;397;50.564;7.272;2022-07-01T04:12:27;16.30;99.90
831;DHT22;397;50.564;7.272;2022-07-01T04:14:54;16.30;99.90
831;DHT22;397;50.564;7.272;2022-07-01T04:17:22;16.40;99.90
831;DHT22;397;50.564;7.272;2022-07-01T04:19:49;16.40;99.90
831;DHT22;397;50.564;7.272;2022-07-01T04:22:17;16.30;99.90
831;DHT22;397;50.564;7.272;2022-07-01T04:25:01;16.10;99.90
831;DHT22;397;50.564;7.272;2022-07-01T04:27:30;15.90;99.90
831;DHT22;397;50.564;7.272;2022-07-01T04:29:58;15.90;99.90
831;DHT22;397;50.564;7.272;2022-07-01T04:32:26;16.00;99.90
831;DHT22;397;50.564;7.272;2022-07-01T04:34:53;15.80;99.90
831;DHT22;397;50.564;7.272;2022-07-01T04:37:21;15.80;99.90
831;DHT22;397;50.564;7.272;2022-07-01T04:39:48;16.00;99.90
831;DHT22;397;50.564;7.272;2022-07-01T04:42:16;16.10;99.90
831;DHT22;397;50.564;7.272;2022-07-01T04:44:45;15.80;99.90
831;DHT22;397;50.564;7.272;2022-07-01T04:47:12;15.90;99.90
831;DHT22;397;50.564;7.272;2022-07-01T04:49:40;16.00;99.90
831;DHT22;397;50.564;7.272;2022-07-01T04:52:07;16.10;99.90
831;DHT22;397;50.564;7.272;2022-07-01T04:54:35;15.80;99.90
831;DHT22;397;50.564;7.272;2022-07-01T04:57:03;16.00;99.90
831;DHT22;397;50.564;7.272;2022-07-01T04:59:30;15.90;99.90
831;DHT22;397;50.564;7.272;2022-07-01T05:01:58;16.00;99.90
831;DHT22;397;50.564;7.272;2022-07-01T05:04:25;16.00;99.90
831;DHT22;397;50.564;7.272;2022-07-01T05:06:54;15.90;99.90
831;DHT22;397;50.564;7.272;2022-07-01T05:09:22;15.80;99.90
831;DHT22;397;50.564;7.272;2022-07-01T05:11:49;15.90;99.90
831;DHT22;397;50.564;7.272;2022-07-01T05:14:17;15.70;99.90
831;DHT22;397;50.564;7.272;2022-07-01T05:16:44;15.90;99.90
831;DHT22;397;50.564;7.272;2022-07-01T05:19:12;16.00;99.90
831;DHT22;397;50.564;7.272;2022-07-01T05:21:57;16.00;99.90
831;DHT22;397;50.564;7.272;2022-07-01T05:24:30;16.30;99.90
831;DHT22;397;50.564;7.272;2022-07-01T05:26:59;16.60;99.90
831;DHT22;397;50.564;7.272;2022-07-01T05:29:27;16.60;99.90
831;DHT22;397;50.564;7.272;2022-07-01T05:31:55;16.70;99.90
831;DHT22;397;50.564;7.272;2022-07-01T05:34:31;16.80;99.90
831;DHT22;397;50.564;7.272;2022-07-01T05:36:59;16.70;99.90
831;DHT22;397;50.564;7.272;2022-07-01T05:39:26;16.60;99.90
831;DHT22;397;50.564;7.272;2022-07-01T05:41:54;16.60;99.90
831;DHT22;397;50.564;7.272;2022-07-01T05:44:21;16.50;99.90
831;DHT22;397;50.564;7.272;2022-07-01T05:46:50;16.60;99.90
831;DHT22;397;50.564;7.272;2022-07-01T05:49:17;16.70;99.90
831;DHT22;397;50.564;7.272;2022-07-01T05:51:45;16.90;99.90
831;DHT22;397;50.564;7.272;2022-07-01T05:54:12;16.80;99.90
831;DHT22;397;50.564;7.272;2022-07-01T05:56:40;16.80;99.90
831;DHT22;397;50.564;7.272;2022-07-01T05:59:07;17.00;99.90
831;DHT22;397;50.564;7.272;2022-07-01T06:01:35;16.90;99.90
831;DHT22;397;50.564;7.272;2022-07-01T06:04:02;17.40;99.90
831;DHT22;397;50.564;7.272;2022-07-01T06:06:30;17.70;99.90
831;DHT22;397;50.564;7.272;2022-07-01T06:08:57;18.00;99.90
831;DHT22;397;50.564;7.272;2022-07-01T06:11:25;17.70;99.90
831;DHT22;397;50.564;7.272;2022-07-01T06:13:52;17.50;99.90
831;DHT22;397;50.564;7.272;2022-07-01T06:16:20;17.10;99.90
831;DHT22;397;50.564;7.272;2022-07-01T06:18:47;17.40;99.90
831;DHT22;397;50.564;7.272;2022-07-01T06:21:15;17.40;99.90
831;DHT22;397;50.564;7.272;2022-07-01T06:23:43;17.30;99.90
831;DHT22;397;50.564;7.272;2022-07-01T06:26:12;17.60;99.90
831;DHT22;397;50.564;7.272;2022-07-01T06:28:40;17.90;99.90
831;DHT22;397;50.564;7.272;2022-07-01T06:31:08;17.60;99.90
831;DHT22;397;50.564;7.272;2022-07-01T06:33:35;17.70;99.90
831;DHT22;397;50.564;7.272;2022-07-01T06:36:03;17.70;99.90
831;DHT22;397;50.564;7.272;2022-07-01T06:38:31;17.60;99.90
831;DHT22;397;50.564;7.272;2022-07-01T06:40:58;18.20;99.90
831;DHT22;397;50.564;7.272;2022-07-01T06:43:43;18.60;99.90
831;DHT22;397;50.564;7.272;2022-07-01T06:46:11;18.40;99.90
831;DHT22;397;50.564;7.272;2022-07-01T06:48:38;18.40;99.90
831;DHT22;397;50.564;7.272;2022-07-01T06:51:06;18.80;99.90
831;DHT22;397;50.564;7.272;2022-07-01T06:53:34;19.20;99.90
831;DHT22;397;50.564;7.272;2022-07-01T06:56:01;19.30;99.90
831;DHT22;397;50.564;7.272;2022-07-01T06:58:29;18.60;99.90
831;DHT22;397;50.564;7.272;2022-07-01T07:00:57;18.30;99.90
831;DHT22;397;50.564;7.272;2022-07-01T07:03:24;18.10;99.90
831;DHT22;397;50.564;7.272;2022-07-01T07:05:52;18.00;99.90
831;DHT22;397;50.564;7.272;2022-07-01T07:08:20;18.10;99.90
831;DHT22;397;50.564;7.272;2022-07-01T07:10:47;17.90;99.90
831;DHT22;397;50.564;7.272;2022-07-01T07:13:15;17.70;99.90
831;DHT22;397;50.564;7.272;2022-07-01T07:15:42;17.70;99.90
831;DHT22;397;50.564;7.272;2022-07-01T07:18:10;18.20;99.90
831;DHT22;397;50.564;7.272;2022-07-01T07:20:37;18.30;99.90
831;DHT22;397;50.564;7.272;2022-07-01T07:23:05;18.60;99.90
831;DHT22;397;50.564;7.272;2022-07-01T07:25:33;18.70;99.90
831;DHT22;397;50.564;7.272;2022-07-01T07:28:00;18.30;99.90
831;DHT22;397;50.564;7.272;2022-07-01T07:30:28;18.10;99.90
831;DHT22;397;50.564;7.272;2022-07-01T07:32:55;18.00;99.90
831;DHT22;397;50.564;7.272;2022-07-01T07:35:23;18.00;99.90
831;DHT22;397;50.564;7.272;2022-07-01T07:37:51;17.90;99.90
831;DHT22;397;50.564;7.272;2022-07-01T07:40:18;17.90;99.90
831;DHT22;397;50.564;7.272;2022-07-01T07:42:47;18.30;99.90
831;DHT22;397;50.564;7.272;2022-07-01T07:45:16;18.30;99.90
831;DHT22;397;50.564;7.272;2022-07-01T07:47:45;18.50;99.90
831;DHT22;397;50.564;7.272;2022-07-01T07:50:15;18.30;99.90
831;DHT22;397;50.564;7.272;2022-07-01T07:52:42;18.60;99.90
831;DHT22;397;50.564;7.272;2022-07-01T07:55:10;18.20;99.90
831;DHT22;397;50.564;7.272;2022-07-01T07:57:38;18.20;99.90
831;DHT22;397;50.564;7.272;2022-07-01T08:00:08;18.50;99.90
831;DHT22;397;50.564;7.272;2022-07-01T08:02:36;18.90;99.90
831;DHT22;397;50.564;7.272;2022-07-01T08:05:04;19.00;99.90
831;DHT22;397;50.564;7.272;2022-07-01T08:07:40;19.00;99.90
831;DHT22;397;50.564;7.272;2022-07-01T08:10:06;19.30;99.90
831;DHT22;397;50.564;7.272;2022-07-01T08:12:34;19.40;99.90
831;DHT22;397;50.564;7.272;2022-07-01T08:15:02;19.50;99.90
831;DHT22;397;50.564;7.272;2022-07-01T08:17:30;19.80;99.90
831;DHT22;397;50.564;7.272;2022-07-01T08:19:58;20.20;99.90
831;DHT22;397;50.564;7.272;2022-07-01T08:22:25;19.90;99.90
831;DHT22;397;50.564;7.272;2022-07-01T08:24:53;19.90;99.90
831;DHT22;397;50.564;7.272;2022-07-01T08:27:21;19.90;99.90
831;DHT22;397;50.564;7.272;2022-07-01T08:29:48;19.50;99.90
831;DHT22;397;50.564;7.272;2022-07-01T08:32:16;19.50;99.90
831;DHT22;397;50.564;7.272;2022-07-01T08:34:44;19.70;99.90
831;DHT22;397;50.564;7.272;2022-07-01T08:37:12;19.60;99.90
831;DHT22;397;50.564;7.272;2022-07-01T08:39:39;19.80;99.90
831;DHT22;397;50.564;7.272;2022-07-01T08:42:07;19.70;99.90
831;DHT22;397;50.564;7.272;2022-07-01T08:44:35;19.00;99.90
831;DHT22;397;50.564;7.272;2022-07-01T08:47:03;18.90;99.90
831;DHT22;397;50.564;7.272;2022-07-01T08:49:31;18.90;99.90
831;DHT22;397;50.564;7.272;2022-07-01T08:51:58;18.70;99.90
831;DHT22;397;50.564;7.272;2022-07-01T08:54:26;18.80;99.90
831;DHT22;397;50.564;7.272;2022-07-01T08:56:53;18.90;99.90
831;DHT22;397;50.564;7.272;2022-07-01T08:59:26;19.10;99.90
831;DHT22;397;50.564;7.272;2022-07-01T09:01:58;19.30;99.90
831;DHT22;397;50.564;7.272;2022-07-01T09:04:27;19.60;99.90
831;DHT22;397;50.564;7.272;2022-07-01T09:07:06;19.80;99.90
831;DHT22;397;50.564;7.272;2022-07-01T09:09:36;19.40;99.90
831;DHT22;397;50.564;7.272;2022-07-01T09:14:53;20.00;99.90
831;DHT22;397;50.564;7.272;2022-07-01T09:17:20;19.60;99.90
831;DHT22;397;50.564;7.272;2022-07-01T09:19:49;20.20;99.90
831;DHT22;397;50.564;7.272;2022-07-01T09:22:17;19.40;99.90
831;DHT22;397;50.564;7.272;2022-07-01T09:24:44;19.60;99.90
831;DHT22;397;50.564;7.272;2022-07-01T09:27:14;19.90;99.90
831;DHT22;397;50.564;7.272;2022-07-01T09:29:46;20.50;99.90
831;DHT22;397;50.564;7.272;2022-07-01T09:32:17;20.60;99.90
831;DHT22;397;50.564;7.272;2022-07-01T09:34:50;21.00;99.90
831;DHT22;397;50.564;7.272;2022-07-01T09:37:24;20.50;99.90
831;DHT22;397;50.564;7.272;2022-07-01T09:39:54;20.70;99.90
831;DHT22;397;50.564;7.272;2022-07-01T09:42:19;21.10;99.90
831;DHT22;397;50.564;7.272;2022-07-01T09:47:25;22.00;99.90
831;DHT22;397;50.564;7.272;2022-07-01T09:49:54;21.20;99.90
831;DHT22;397;50.564;7.272;2022-07-01T09:52:22;21.60;99.90
831;DHT22;397;50.564;7.272;2022-07-01T09:54:51;21.80;99.90
831;DHT22;397;50.564;7.272;2022-07-01T09:57:19;21.40;99.90
831;DHT22;397;50.564;7.272;2022-07-01T09:59:49;21.60;99.90
831;DHT22;397;50.564;7.272;2022-07-01T10:02:21;22.30;99.90
831;DHT22;397;50.564;7.272;2022-07-01T10:04:53;22.40;99.90
831;DHT22;397;50.564;7.272;2022-07-01T10:07:49;21.50;99.90
831;DHT22;397;50.564;7.272;2022-07-01T10:10:33;20.90;99.90
831;DHT22;397;50.564;7.272;2022-07-01T10:12:56;20.80;99.90
831;DHT22;397;50.564;7.272;2022-07-01T10:15:25;21.30;99.90
831;DHT22;397;50.564;7.272;2022-07-01T10:17:53;21.20;99.90
831;DHT22;397;50.564;7.272;2022-07-01T10:20:28;21.60;99.90
831;DHT22;397;50.564;7.272;2022-07-01T10:23:07;21.10;99.90
831;DHT22;397;50.564;7.272;2022-07-01T10:28:29;21.40;99.90
831;DHT22;397;50.564;7.272;2022-07-01T10:31:04;20.90;99.90
831;DHT22;397;50.564;7.272;2022-07-01T10:39:08;21.40;99.90
831;DHT22;397;50.564;7.272;2022-07-01T10:44:24;21.60;99.90
831;DHT22;397;50.564;7.272;2022-07-01T10:46:54;21.70;99.90
831;DHT22;397;50.564;7.272;2022-07-01T10:59:54;22.10;99.90
831;DHT22;397;50.564;7.272;2022-07-01T11:02:33;22.10;99.90
831;DHT22;397;50.564;7.272;2022-07-01T11:05:03;22.20;99.90
831;DHT22;397;50.564;7.272;2022-07-01T11:07:33;22.40;99.90
831;DHT22;397;50.564;7.272;2022-07-01T11:10:03;22.10;99.90
831;DHT22;397;50.564;7.272;2022-07-01T11:12:32;21.70;99.90
831;DHT22;397;50.564;7.272;2022-07-01T11:15:01;21.60;99.90
831;DHT22;397;50.564;7.272;2022-07-01T11:17:29;21.90;99.90
831;DHT22;397;50.564;7.272;2022-07-01T11:19:58;22.10;99.90
831;DHT22;397;50.564;7.272;2022-07-01T11:22:32;22.00;99.90
831;DHT22;397;50.564;7.272;2022-07-01T11:25:09;22.20;99.90
831;DHT22;397;50.564;7.272;2022-07-01T11:27:38;22.40;99.90
831;DHT22;397;50.564;7.272;2022-07-01T11:30:10;22.40;99.90
831;DHT22;397;50.564;7.272;2022-07-01T11:32:43;22.50;99.90
831;DHT22;397;50.564;7.272;2022-07-01T11:35:19;22.00;99.90
831;DHT22;397;50.564;7.272;2022-07-01T11:38:10;22.10;99.90
831;DHT22;397;50.564;7.272;2022-07-01T11:40:43;21.40;99.90
831;DHT22;397;50.564;7.272;2022-07-01T11:43:30;21.50;99.90
831;DHT22;397;50.564;7.272;2022-07-01T11:46:01;21.60;99.90
831;DHT22;397;50.564;7.272;2022-07-01T11:48:38;21.90;99.90
831;DHT22;397;50.564;7.272;2022-07-01T11:51:18;21.90;99.90
831;DHT22;397;50.564;7.272;2022-07-01T11:53:44;21.90;99.90
831;DHT22;397;50.564;7.272;2022-07-01T11:56:13;22.10;99.90
831;DHT22;397;50.564;7.272;2022-07-01T11:58:51;22.00;99.90
831;DHT22;397;50.564;7.272;2022-07-01T12:01:24;21.90;99.90
831;DHT22;397;50.564;7.272;2022-07-01T12:03:53;21.70;99.90
831;DHT22;397;50.564;7.272;2022-07-01T12:06:22;21.70;99.90
831;DHT22;397;50.564;7.272;2022-07-01T12:08:50;22.20;99.90
831;DHT22;397;50.564;7.272;2022-07-01T12:11:20;21.80;99.90
831;DHT22;397;50.564;7.272;2022-07-01T12:13:49;22.20;99.90
831;DHT22;397;50.564;7.272;2022-07-01T12:16:17;22.40;99.90
831;DHT22;397;50.564;7.272;2022-07-01T12:18:55;22.30;99.90
831;DHT22;397;50.564;7.272;2022-07-01T12:21:23;22.80;99.90
831;DHT22;397;50.564;7.272;2022-07-01T12:24:05;23.10;99.90
831;DHT22;397;50.564;7.272;2022-07-01T12:26:34;22.70;99.90
831;DHT22;397;50.564;7.272;2022-07-01T12:29:02;22.60;99.90
831;DHT22;397;50.564;7.272;2022-07-01T12:31:30;23.00;99.90
831;DHT22;397;50.564;7.272;2022-07-01T12:33:59;22.70;99.90
831;DHT22;397;50.564;7.272;2022-07-01T12:36:26;22.80;99.90
831;DHT22;397;50.564;7.272;2022-07-01T12:39:08;22.60;99.90
831;DHT22;397;50.564;7.272;2022-07-01T12:41:34;22.60;99.90
831;DHT22;397;50.564;7.272;2022-07-01T12:44:19;22.60;99.90
831;DHT22;397;50.564;7.272;2022-07-01T12:46:35;22.40;99.90
831;DHT22;397;50.564;7.272;2022-07-01T12:49:04;22.00;99.90
831;DHT22;397;50.564;7.272;2022-07-01T12:51:34;21.90;99.90
831;DHT22;397;50.564;7.272;2022-07-01T12:54:01;21.60;99.90
831;DHT22;397;50.564;7.272;2022-07-01T12:56:29;21.50;99.90
831;DHT22;397;50.564;7.272;2022-07-01T12:58:57;21.50;99.90
831;DHT22;397;50.564;7.272;2022-07-01T13:01:25;21.60;99.90
831;DHT22;397;50.564;7.272;2022-07-01T13:03:52;21.90;99.90
831;DHT22;397;50.564;7.272;2022-07-01T13:06:20;21.60;99.90
831;DHT22;397;50.564;7.272;2022-07-01T13:08:47;21.60;99.90
831;DHT22;397;50.564;7.272;2022-07-01T13:11:15;21.30;99.90
831;DHT22;397;50.564;7.272;2022-07-01T13:13:42;21.30;99.90
831;DHT22;397;50.564;7.272;2022-07-01T13:16:09;21.40;99.90
831;DHT22;397;50.564;7.272;2022-07-01T13:18:37;21.70;99.90
831;DHT22;397;50.564;7.272;2022-07-01T13:21:04;22.10;99.90
831;DHT22;397;50.564;7.272;2022-07-01T13:23:32;22.10;99.90
831;DHT22;397;50.564;7.272;2022-07-01T13:25:59;22.00;99.90
831;DHT22;397;50.564;7.272;2022-07-01T13:28:27;22.10;99.90
831;DHT22;397;50.564;7.272;2022-07-01T13:30:55;22.20;99.90
831;DHT22;397;50.564;7.272;2022-07-01T13:33:23;21.90;99.90
831;DHT22;397;50.564;7.272;2022-07-01T13:35:50;21.70;99.90
831;DHT22;397;50.564;7.272;2022-07-01T13:38:18;21.90;99.90
831;DHT22;397;50.564;7.272;2022-07-01T13:40:45;21.60;99.90
831;DHT22;397;50.564;7.272;2022-07-01T13:43:13;21.80;99.90
831;DHT22;397;50.564;7.272;2022-07-01T13:45:42;21.80;99.90
831;DHT22;397;50.564;7.272;2022-07-01T13:48:09;21.70;99.90
831;DHT22;397;50.564;7.272;2022-07-01T13:50:37;21.80;99.90
831;DHT22;397;50.564;7.272;2022-07-01T13:53:04;21.60;99.90
831;DHT22;397;50.564;7.272;2022-07-01T13:55:32;21.80;99.90
831;DHT22;397;50.564;7.272;2022-07-01T13:57:59;22.10;99.90
831;DHT22;397;50.564;7.272;2022-07-01T14:00:27;22.20;99.90
831;DHT22;397;50.564;7.272;2022-07-01T14:02:54;22.40;99.90
831;DHT22;397;50.564;7.272;2022-07-01T14:05:22;22.30;99.90
831;DHT22;397;50.564;7.272;2022-07-01T14:07:50;22.20;99.90
831;DHT22;397;50.564;7.272;2022-07-01T14:10:18;22.10;99.90
831;DHT22;397;50.564;7.272;2022-07-01T14:12:45;21.70;99.90
831;DHT22;397;50.564;7.272;2022-07-01T14:15:14;22.00;99.90
831;DHT22;397;50.564;7.272;2022-07-01T14:17:42;22.50;99.90
831;DHT22;397;50.564;7.272;2022-07-01T14:20:11;22.30;99.90
831;DHT22;397;50.564;7.272;2022-07-01T14:22:39;22.40;99.90
831;DHT22;397;50.564;7.272;2022-07-01T14:25:07;22.60;99.90
831;DHT22;397;50.564;7.272;2022-07-01T14:27:35;22.20;99.90
831;DHT22;397;50.564;7.272;2022-07-01T14:30:03;22.20;99.90
831;DHT22;397;50.564;7.272;2022-07-01T14:32:34;21.90;99.90
831;DHT22;397;50.564;7.272;2022-07-01T14:35:02;22.40;99.90
831;DHT22;397;50.564;7.272;2022-07-01T14:37:30;22.50;99.90
831;DHT22;397;50.564;7.272;2022-07-01T14:39:58;22.70;99.90
831;DHT22;397;50.564;7.272;2022-07-01T14:42:26;22.60;99.90
831;DHT22;397;50.564;7.272;2022-07-01T14:44:54;22.50;99.90
831;DHT22;397;50.564;7.272;2022-07-01T14:47:23;22.50;99.90
831;DHT22;397;50.564;7.272;2022-07-01T14:49:50;22.20;99.90
831;DHT22;397;50.564;7.272;2022-07-01T14:52:23;22.20;99.90
831;DHT22;397;50.564;7.272;2022-07-01T14:54:51;22.20;99.90
831;DHT22;397;50.564;7.272;2022-07-01T14:57:19;22.20;99.90
831;DHT22;397;50.564;7.272;2022-07-01T14:59:47;22.10;99.90
831;DHT22;397;50.564;7.272;2022-07-01T15:02:14;22.00;99.90
831;DHT22;397;50.564;7.272;2022-07-01T15:04:42;22.10;99.90
831;DHT22;397;50.564;7.272;2022-07-01T15:07:09;22.10;99.90
831;DHT22;397;50.564;7.272;2022-07-01T15:09:37;22.30;99.90
831;DHT22;397;50.564;7.272;2022-07-01T15:12:05;22.30;99.90
831;DHT22;397;50.564;7.272;2022-07-01T15:14:33;22.20;99.90
831;DHT22;397;50.564;7.272;2022-07-01T15:17:00;22.50;99.90
831;DHT22;397;50.564;7.272;2022-07-01T15:19:28;22.20;99.90
831;DHT22;397;50.564;7.272;2022-07-01T15:21:56;22.00;99.90
831;DHT22;397;50.564;7.272;2022-07-01T15:24:24;21.90;99.90
831;DHT22;397;50.564;7.272;2022-07-01T15:26:52;21.90;99.90
831;DHT22;397;50.564;7.272;2022-07-01T15:29:20;22.10;99.90
831;DHT22;397;50.564;7.272;2022-07-01T15:31:48;22.20;99.90
831;DHT22;397;50.564;7.272;2022-07-01T15:34:16;22.00;99.90
831;DHT22;397;50.564;7.272;2022-07-01T15:36:44;22.10;99.90
831;DHT22;397;50.564;7.272;2022-07-01T15:39:12;22.30;99.90
831;DHT22;397;50.564;7.272;2022-07-01T15:41:39;22.40;99.90
831;DHT22;397;50.564;7.272;2022-07-01T15:44:07;22.50;99.90
831;DHT22;397;50.564;7.272;2022-07-01T15:46:35;22.30;99.90
831;DHT22;397;50.564;7.272;2022-07-01T15:49:04;22.40;99.90
831;DHT22;397;50.564;7.272;2022-07-01T15:51:34;22.20;99.90
831;DHT22;397;50.564;7.272;2022-07-01T15:54:02;22.00;99.90
831;DHT22;397;50.564;7.272;2022-07-01T15:56:30;21.70;99.90
831;DHT22;397;50.564;7.272;2022-07-01T15:59:00;21.80;99.90
831;DHT22;397;50.564;7.272;2022-07-01T16:01:27;21.90;99.90
831;DHT22;397;50.564;7.272;2022-07-01T16:03:56;22.10;99.90
831;DHT22;397;50.564;7.272;2022-07-01T16:06:23;21.70;99.90
831;DHT22;397;50.564;7.272;2022-07-01T16:08:57;21.80;99.90
831;DHT22;397;50.564;7.272;2022-07-01T16:11:26;21.80;99.90
831;DHT22;397;50.564;7.272;2022-07-01T16:13:56;21.70;99.90
831;DHT22;397;50.564;7.272;2022-07-01T16:16:26;21.50;99.90
831;DHT22;397;50.564;7.272;2022-07-01T16:18:54;21.50;99.90
831;DHT22;397;50.564;7.272;2022-07-01T16:21:23;21.30;99.90
831;DHT22;397;50.564;7.272;2022-07-01T16:23:52;21.50;99.90
831;DHT22;397;50.564;7.272;2022-07-01T16:26:23;21.60;99.90
831;DHT22;397;50.564;7.272;2022-07-01T16:28:52;21.60;99.90
831;DHT22;397;50.564;7.272;2022-07-01T16:31:21;21.80;99.90
831;DHT22;397;50.564;7.272;2022-07-01T16:33:49;21.90;99.90
831;DHT22;397;50.564;7.272;2022-07-01T16:36:25;21.90;99.90
831;DHT22;397;50.564;7.272;2022-07-01T16:38:56;21.70;99.90
831;DHT22;397;50.564;7.272;2022-07-01T16:41:52;21.60;99.90
831;DHT22;397;50.564;7.272;2022-07-01T16:46:54;22.00;99.90
831;DHT22;397;50.564;7.272;2022-07-01T16:49:25;21.90;99.90
831;DHT22;397;50.564;7.272;2022-07-01T16:52:02;22.10;99.90
831;DHT22;397;50.564;7.272;2022-07-01T16:54:28;22.10;99.90
831;DHT22;397;50.564;7.272;2022-07-01T16:56:57;21.80;99.90
831;DHT22;397;50.564;7.272;2022-07-01T16:59:27;21.90;99.90
831;DHT22;397;50.564;7.272;2022-07-01T17:01:58;21.90;99.90
831;DHT22;397;50.564;7.272;2022-07-01T17:04:26;21.80;99.90
831;DHT22;397;50.564;7.272;2022-07-01T17:06:56;21.70;99.90
831;DHT22;397;50.564;7.272;2022-07-01T17:09:27;21.50;99.90
831;DHT22;397;50.564;7.272;2022-07-01T17:11:55;21.50;99.90
831;DHT22;397;50.564;7.272;2022-07-01T17:14:24;21.60;99.90